Time;durP1;ratioP1;P1;durP2;ratioP2;P2;SDS_P1;SDS_P2;PMS_P1;PMS_P2;Temp;Humidity;BMP_temperature;BMP_pressure;BME280_temperature;BME280_humidity;BME280_pressure;Samples;Min_cycle;Max_cycle;Signal;HPM_P1;HPM_P2
2023/11/19 00:00:11;;;;;;;1999.90;999.90;;;13.00;99.90;;;;;;5017165;28;20228;-70
2023/11/19 00:02:40;;;;;;;1999.90;999.90;;;13.00;99.90;;;;;;5016967;28;20287;-71
2023/11/19 00:05:08;;;;;;;1999.90;999.90;;;13.00;99.90;;;;;;5015022;28;20452;-71
2023/11/19 00:07:36;;;;;;;1999.90;999.90;;;13.00;99.90;;;;;;5015561;28;20418;-71
2023/11/19 00:10:10;;;;;;;1999.90;999.90;;;13.00;99.90;;;;;;5015653;28;20438;-71
2023/11/19 00:12:37;;;;;;;1999.90;999.90;;;13.00;99.90;;;;;;5016142;28;20551;-71
2023/11/19 00:15:03;;;;;;;1999.90;999.90;;;13.00;99.90;;;;;;5015792;28;20851;-71
2023/11/19 00:17:29;;;;;;;1999.90;999.90;;;13.00;99.90;;;;;;5015951;28;20409;-70
2023/11/19 00:19:54;;;;;;;1999.90;999.90;;;13.10;99.90;;;;;;5015896;28;20999;-71
2023/11/19 00:22:21;;;;;;;1999.90;999.90;;;13.00;99.90;;;;;;5016360;28;20171;-70
2023/11/19 00:24:47;;;;;;;1999.90;999.90;;;13.10;99.90;;;;;;5016323;28;20197;-70
2023/11/19 00:27:12;;;;;;;1999.90;999.90;;;13.10;99.90;;;;;;5017433;28;20921;-70
2023/11/19 00:29:38;;;;;;;1999.90;999.90;;;13.10;99.90;;;;;;5016276;28;20301;-70
2023/11/19 00:32:05;;;;;;;1999.90;999.90;;;13.10;99.90;;;;;;5016313;28;20224;-70
2023/11/19 00:34:31;;;;;;;1999.90;999.90;;;13.10;99.90;;;;;;5015996;28;20274;-72
2023/11/19 00:36:56;;;;;;;1999.90;999.90;;;13.10;99.90;;;;;;4997974;28;20499;-72
2023/11/19 00:39:22;;;;;;;1999.90;999.90;;;13.00;99.90;;;;;;5015517;28;20611;-73
2023/11/19 00:41:48;;;;;;;1999.90;999.90;;;13.10;99.90;;;;;;5015603;28;20741;-70
2023/11/19 00:44:14;;;;;;;1999.90;999.90;;;13.00;99.90;;;;;;5015727;28;20172;-70
2023/11/19 00:46:39;;;;;;;1999.90;999.90;;;13.00;99.90;;;;;;5015554;28;20190;-70
2023/11/19 00:49:05;;;;;;;1999.90;999.90;;;13.00;99.90;;;;;;5015951;28;20188;-70
2023/11/19 00:51:34;;;;;;;1999.90;999.90;;;13.00;99.90;;;;;;4998474;28;20203;-71
2023/11/19 00:54:00;;;;;;;1999.90;999.90;;;13.00;99.90;;;;;;5018171;28;20180;-71
2023/11/19 00:56:26;;;;;;;1999.90;999.90;;;13.10;99.90;;;;;;5019355;28;20474;-69
2023/11/19 00:58:52;;;;;;;1999.90;999.90;;;;;;;;;;5002939;28;20451;-69
2023/11/19 01:01:18;;;;;;;1999.90;999.90;;;13.00;99.90;;;;;;5022340;28;20223;-72
2023/11/19 01:03:43;;;;;;;1999.90;999.90;;;12.90;99.90;;;;;;5022608;28;20417;-71
2023/11/19 01:06:09;;;;;;;1999.90;999.90;;;12.90;99.90;;;;;;5020745;28;20182;-70
2023/11/19 01:08:37;;;;;;;1999.90;999.90;;;12.80;99.90;;;;;;5019901;28;20174;-71
2023/11/19 01:11:04;;;;;;;1999.90;999.90;;;12.80;99.90;;;;;;5019169;28;20205;-71
2023/11/19 01:13:29;;;;;;;1999.90;999.90;;;12.80;99.90;;;;;;5019581;28;20487;-73
2023/11/19 01:15:56;;;;;;;1999.90;999.90;;;12.80;99.90;;;;;;5021538;28;20448;-74
2023/11/19 01:18:22;;;;;;;1999.90;999.90;;;12.80;99.90;;;;;;5021193;28;20166;-71
2023/11/19 01:20:47;;;;;;;1999.90;999.90;;;12.80;99.90;;;;;;5019047;28;20531;-74
2023/11/19 01:23:13;;;;;;;1999.90;999.90;;;12.80;99.90;;;;;;5018589;28;20645;-71
2023/11/19 01:25:38;;;;;;;1999.90;999.90;;;12.90;99.90;;;;;;5003349;28;20275;-73
2023/11/19 01:28:04;;;;;;;1999.90;999.90;;;13.00;99.90;;;;;;5004624;28;20182;-73
2023/11/19 01:30:30;;;;;;;1999.90;999.90;;;13.00;99.90;;;;;;5021632;28;20223;-73
2023/11/19 01:32:56;;;;;;;1999.90;999.90;;;13.00;99.90;;;;;;5003789;28;20182;-73
2023/11/19 01:35:23;;;;;;;1999.90;999.90;;;13.10;99.90;;;;;;5020567;28;20402;-73
2023/11/19 01:37:48;;;;;;;1999.90;999.90;;;13.10;99.90;;;;;;5020724;28;20169;-73
2023/11/19 01:40:15;;;;;;;1999.90;999.90;;;13.10;99.90;;;;;;5019608;28;20465;-73
2023/11/19 01:42:41;;;;;;;1999.90;999.90;;;13.10;99.90;;;;;;5020109;28;20167;-72
2023/11/19 01:45:09;;;;;;;1999.90;999.90;;;13.20;99.90;;;;;;5002577;28;20471;-73
2023/11/19 01:47:35;;;;;;;1999.90;999.90;;;13.20;99.90;;;;;;5002705;28;20835;-73
2023/11/19 01:50:06;;;;;;;1999.90;999.90;;;13.10;99.90;;;;;;5000910;28;20418;-73
2023/11/19 01:52:33;;;;;;;1999.90;999.90;;;13.20;99.90;;;;;;5018762;28;20418;-73
2023/11/19 01:54:59;;;;;;;1999.90;999.90;;;13.30;99.90;;;;;;5019148;28;20492;-73
2023/11/19 01:57:25;;;;;;;1999.90;999.90;;;13.30;99.90;;;;;;5001234;28;20487;-73
2023/11/19 01:59:52;;;;;;;1999.90;999.90;;;13.50;99.90;;;;;;5000903;28;20266;-73
2023/11/19 02:02:21;;;;;;;1999.90;999.90;;;13.40;99.90;;;;;;5020145;28;20187;-73
2023/11/19 02:04:49;;;;;;;1999.90;999.90;;;13.40;99.90;;;;;;5017639;28;20416;-73
2023/11/19 02:07:17;;;;;;;1999.90;999.90;;;13.50;99.90;;;;;;5019349;28;21210;-73
2023/11/19 02:09:43;;;;;;;1999.90;999.90;;;13.70;99.90;;;;;;5016476;28;20422;-73
2023/11/19 02:12:11;;;;;;;1999.90;999.90;;;13.50;99.90;;;;;;5014459;28;20500;-73
2023/11/19 02:14:37;;;;;;;1999.90;999.90;;;13.50;99.90;;;;;;5014101;28;20422;-73
2023/11/19 02:17:03;;;;;;;1999.90;999.90;;;13.50;99.90;;;;;;5014307;28;20811;-73
2023/11/19 02:19:29;;;;;;;1999.90;999.90;;;13.50;99.90;;;;;;5014393;28;20256;-73
2023/11/19 02:21:55;;;;;;;1999.90;999.90;;;13.60;99.90;;;;;;5014039;28;20715;-73
2023/11/19 02:24:22;;;;;;;1999.90;999.90;;;13.50;99.90;;;;;;5013884;28;20413;-73
2023/11/19 02:27:14;;;;;;;1999.90;999.90;;;13.50;99.90;;;;;;5014020;28;20411;-73
2023/11/19 02:29:39;;;;;;;1999.90;999.90;;;13.50;99.90;;;;;;5013795;28;20496;-73
2023/11/19 02:32:05;;;;;;;1999.90;999.90;;;13.40;99.90;;;;;;5013610;28;20561;-73
2023/11/19 02:34:31;;;;;;;1999.90;999.90;;;13.50;99.90;;;;;;5013706;28;20587;-73
2023/11/19 02:36:57;;;;;;;1999.90;999.90;;;13.40;99.90;;;;;;5013809;28;20407;-73
2023/11/19 02:39:22;;;;;;;1999.90;999.90;;;13.40;99.90;;;;;;5013836;28;20183;-73
2023/11/19 02:41:52;;;;;;;1999.90;999.90;;;13.30;99.90;;;;;;5013639;28;20426;-73
2023/11/19 02:44:18;;;;;;;1999.90;999.90;;;13.40;99.90;;;;;;5013734;28;20186;-73
2023/11/19 02:46:44;;;;;;;1999.90;999.90;;;13.40;99.90;;;;;;5013786;28;20769;-73
2023/11/19 02:49:09;;;;;;;1999.90;999.90;;;13.40;99.90;;;;;;5013606;28;20265;-73
2023/11/19 02:51:35;;;;;;;1999.90;999.90;;;13.40;99.90;;;;;;5013688;28;20213;-73
2023/11/19 02:54:03;;;;;;;1999.90;999.90;;;13.40;99.90;;;;;;5013270;28;20171;-73
2023/11/19 02:56:34;;;;;;;1999.90;999.90;;;13.40;99.90;;;;;;5015683;28;20175;-73
2023/11/19 02:59:03;;;;;;;1999.90;999.90;;;13.40;99.90;;;;;;5033152;28;20914;-73
2023/11/19 03:01:33;;;;;;;1999.90;999.90;;;13.30;99.90;;;;;;5033155;28;20524;-73
2023/11/19 03:04:01;;;;;;;1999.90;999.90;;;13.30;99.90;;;;;;5033140;28;20399;-73
2023/11/19 03:06:27;;;;;;;1999.90;999.90;;;13.30;99.90;;;;;;5033055;28;20445;-73
2023/11/19 03:08:52;;;;;;;1999.90;999.90;;;13.30;99.90;;;;;;5032993;28;20908;-73
2023/11/19 03:11:18;;;;;;;1999.90;999.90;;;13.20;99.90;;;;;;5032685;28;20465;-73
2023/11/19 03:13:44;;;;;;;1999.90;999.90;;;13.20;99.90;;;;;;5032884;28;20171;-73
2023/11/19 03:16:11;;;;;;;1999.90;999.90;;;13.30;99.90;;;;;;5031811;28;20170;-73
2023/11/19 03:18:38;;;;;;;1999.90;999.90;;;13.20;99.90;;;;;;5032829;28;20184;-73
2023/11/19 03:21:05;;;;;;;1999.90;999.90;;;13.20;99.90;;;;;;5032657;28;20442;-73
2023/11/19 03:23:31;;;;;;;1999.90;999.90;;;13.20;99.90;;;;;;5032853;28;20404;-73
2023/11/19 03:25:57;;;;;;;1999.90;999.90;;;13.30;99.90;;;;;;5032657;28;20417;-73
2023/11/19 03:28:22;;;;;;;1999.90;999.90;;;13.30;99.90;;;;;;5033007;28;20552;-73
2023/11/19 03:30:48;;;;;;;1999.90;999.90;;;13.30;99.90;;;;;;5032351;28;20707;-73
2023/11/19 03:33:13;;;;;;;1999.90;999.90;;;13.30;99.90;;;;;;5032700;28;20168;-73
2023/11/19 03:35:41;;;;;;;1999.90;999.90;;;13.30;99.90;;;;;;5032513;28;20627;-73
2023/11/19 03:38:06;;;;;;;1999.90;999.90;;;13.30;99.90;;;;;;5032993;28;20224;-73
2023/11/19 03:40:32;;;;;;;1999.90;999.90;;;13.40;99.90;;;;;;5032509;28;20422;-73
2023/11/19 03:43:01;;;;;;;1999.90;999.90;;;13.40;99.90;;;;;;5032540;28;20171;-73
2023/11/19 03:45:26;;;;;;;1999.90;999.90;;;13.40;99.90;;;;;;5032443;28;20578;-73
2023/11/19 03:47:52;;;;;;;1999.90;999.90;;;13.40;99.90;;;;;;5032363;28;20434;-73
2023/11/19 03:50:19;;;;;;;1999.90;999.90;;;13.40;99.90;;;;;;5032471;28;20255;-73
2023/11/19 03:52:46;;;;;;;1999.90;999.90;;;13.40;99.90;;;;;;5032604;28;20265;-73
2023/11/19 03:55:12;;;;;;;1999.90;999.90;;;13.40;99.90;;;;;;5032070;28;20458;-73
2023/11/19 03:57:38;;;;;;;1999.90;999.90;;;13.40;99.90;;;;;;5032425;28;20408;-73
2023/11/19 04:00:13;;;;;;;1999.90;999.90;;;13.40;99.90;;;;;;5032073;28;20434;-73
2023/11/19 04:02:39;;;;;;;1999.90;999.90;;;13.30;99.90;;;;;;5032111;28;20482;-73
2023/11/19 04:05:05;;;;;;;1999.90;999.90;;;13.30;99.90;;;;;;5031945;28;20476;-73
2023/11/19 04:07:32;;;;;;;1999.90;999.90;;;13.30;99.90;;;;;;5032073;28;20172;-73
2023/11/19 04:09:58;;;;;;;1999.90;999.90;;;13.50;99.90;;;;;;5031943;28;20420;-73
2023/11/19 04:12:23;;;;;;;1999.90;999.90;;;13.30;99.90;;;;;;5032002;28;20421;-73
2023/11/19 04:14:49;;;;;;;1999.90;999.90;;;13.30;99.90;;;;;;5032016;28;20173;-73
2023/11/19 04:17:14;;;;;;;1999.90;999.90;;;13.30;99.90;;;;;;5032045;28;20172;-73
2023/11/19 04:19:41;;;;;;;1999.90;999.90;;;13.30;99.90;;;;;;5033886;28;20216;-73
2023/11/19 04:22:08;;;;;;;1999.90;999.90;;;13.30;99.90;;;;;;5034076;28;20189;-73
2023/11/19 04:24:34;;;;;;;1999.90;999.90;;;13.40;99.90;;;;;;5034339;28;20776;-73
2023/11/19 04:27:00;;;;;;;1999.90;999.90;;;13.40;99.90;;;;;;5034504;28;20416;-72
2023/11/19 04:29:25;;;;;;;1999.90;999.90;;;13.30;99.90;;;;;;5038656;28;20803;-73
2023/11/19 04:31:52;;;;;;;1999.90;999.90;;;13.30;99.90;;;;;;5039962;28;20287;-73
2023/11/19 04:34:17;;;;;;;1999.90;999.90;;;13.30;99.90;;;;;;5039577;28;20405;-72
2023/11/19 04:36:43;;;;;;;1999.90;999.90;;;13.20;99.90;;;;;;5039221;28;20219;-73
2023/11/19 04:39:12;;;;;;;1999.90;999.90;;;13.20;99.90;;;;;;5039332;28;20547;-73
2023/11/19 04:41:47;;;;;;;1999.90;999.90;;;13.10;99.90;;;;;;5039554;28;20523;-73
2023/11/19 04:44:12;;;;;;;1999.90;999.90;;;13.10;99.90;;;;;;5039169;28;20967;-73
2023/11/19 04:46:38;;;;;;;1999.90;999.90;;;13.10;99.90;;;;;;5021800;28;20421;-73
2023/11/19 04:49:04;;;;;;;1999.90;999.90;;;13.10;99.90;;;;;;5039172;28;20687;-74
2023/11/19 04:51:30;;;;;;;1999.90;999.90;;;13.10;99.90;;;;;;5037882;28;20193;-73
2023/11/19 04:53:56;;;;;;;1999.90;999.90;;;13.30;99.90;;;;;;5038800;28;20437;-73
2023/11/19 04:56:22;;;;;;;1999.90;999.90;;;13.10;99.90;;;;;;5036256;28;20202;-73
2023/11/19 04:58:48;;;;;;;1999.90;999.90;;;13.20;99.90;;;;;;5035397;28;20413;-73
2023/11/19 05:01:17;;;;;;;1999.90;999.90;;;13.20;99.90;;;;;;5035292;28;20456;-73
2023/11/19 05:03:43;;;;;;;1999.90;999.90;;;13.10;99.90;;;;;;5035220;28;20239;-73
2023/11/19 05:06:09;;;;;;;1999.90;999.90;;;13.10;99.90;;;;;;5035108;28;20415;-73
2023/11/19 05:08:35;;;;;;;1999.90;999.90;;;13.10;99.90;;;;;;5035253;28;20419;-73
2023/11/19 05:11:01;;;;;;;1999.90;999.90;;;13.10;99.90;;;;;;5035039;28;20610;-73
2023/11/19 05:13:26;;;;;;;1999.90;999.90;;;13.10;99.90;;;;;;5035998;28;20433;-73
2023/11/19 05:15:52;;;;;;;1999.90;999.90;;;13.10;99.90;;;;;;5037106;28;20246;-72
2023/11/19 05:18:18;;;;;;;1999.90;999.90;;;13.00;99.90;;;;;;5037417;28;20794;-73
2023/11/19 05:20:44;;;;;;;1999.90;999.90;;;13.00;99.90;;;;;;5038278;28;20276;-72
2023/11/19 05:23:10;;;;;;;1999.90;999.90;;;13.00;33.10;;;;;;5038217;28;20410;-73
2023/11/19 05:25:37;;;;;;;1999.90;999.90;;;13.00;1.00;;;;;;5037268;28;20973;-73
2023/11/19 05:28:02;;;;;;;1999.90;999.90;;;13.00;1.00;;;;;;5037533;28;20177;-73
2023/11/19 05:30:28;;;;;;;1999.90;999.90;;;13.00;1.00;;;;;;5037417;28;20487;-73
2023/11/19 05:32:53;;;;;;;1999.90;999.90;;;13.00;1.00;;;;;;5036900;28;20517;-73
2023/11/19 05:35:19;;;;;;;1999.90;999.90;;;12.90;1.00;;;;;;5037011;28;20182;-72
2023/11/19 05:37:44;;;;;;;1999.90;999.90;;;12.90;1.00;;;;;;5037166;28;20258;-73
2023/11/19 05:40:14;;;;;;;1999.90;999.90;;;12.90;1.00;;;;;;5018292;28;20769;-72
2023/11/19 05:42:41;;;;;;;1999.90;999.90;;;12.90;1.00;;;;;;5037555;28;20660;-73
2023/11/19 05:45:07;;;;;;;1999.90;999.90;;;12.90;1.00;;;;;;5037508;28;20405;-72
2023/11/19 05:47:33;;;;;;;1999.90;999.90;;;12.80;1.00;;;;;;5038121;28;20948;-72
2023/11/19 05:49:59;;;;;;;1999.90;999.90;;;12.60;1.00;;;;;;5037052;28;20406;-72
2023/11/19 05:52:24;;;;;;;1999.90;999.90;;;12.80;1.00;;;;;;5036869;28;20266;-73
2023/11/19 05:54:51;;;;;;;1999.90;999.90;;;12.80;1.00;;;;;;5036139;28;20182;-72
2023/11/19 05:57:23;;;;;;;1999.90;999.90;;;12.80;1.00;;;;;;5036870;28;20225;-72
2023/11/19 05:59:50;;;;;;;1999.90;999.90;;;13.00;1.00;;;;;;5036950;28;20411;-72
2023/11/19 06:02:16;;;;;;;1999.90;999.90;;;12.80;1.00;;;;;;5036840;28;20411;-73
2023/11/19 06:04:44;;;;;;;1999.90;999.90;;;12.80;1.00;;;;;;5037580;28;20411;-72
2023/11/19 06:07:09;;;;;;;1999.90;999.90;;;12.80;1.00;;;;;;5036413;28;20408;-72
2023/11/19 06:09:35;;;;;;;1999.90;999.90;;;12.80;1.00;;;;;;5036198;28;20418;-72
2023/11/19 06:12:02;;;;;;;1999.90;999.90;;;12.80;1.00;;;;;;5035835;28;20335;-72
2023/11/19 06:14:27;;;;;;;1999.90;999.90;;;12.80;1.00;;;;;;5036182;28;20200;-72
2023/11/19 06:16:53;;;;;;;1999.90;999.90;;;12.80;1.00;;;;;;5036311;28;20782;-72
2023/11/19 06:19:19;;;;;;;1999.90;999.90;;;12.70;1.00;;;;;;5036218;28;20796;-72
2023/11/19 06:21:44;;;;;;;1999.90;999.90;;;12.80;1.00;;;;;;5035661;28;20197;-72
2023/11/19 06:24:10;;;;;;;1999.90;999.90;;;12.80;1.00;;;;;;5035867;28;20179;-72
2023/11/19 06:26:35;;;;;;;1999.90;999.90;;;12.80;1.00;;;;;;5018293;28;20229;-72
2023/11/19 06:29:01;;;;;;;1999.90;999.90;;;12.80;1.00;;;;;;5035866;28;20170;-73
2023/11/19 06:31:26;;;;;;;1999.90;999.90;;;12.80;1.00;;;;;;5033425;28;20740;-73
2023/11/19 06:33:52;;;;;;;1999.90;999.90;;;12.80;1.00;;;;;;5033758;28;20170;-73
2023/11/19 06:36:18;;;;;;;1999.90;999.90;;;12.80;1.00;;;;;;5033645;28;20170;-73
2023/11/19 06:38:44;;;;;;;1999.90;999.90;;;12.80;1.00;;;;;;5033632;28;20550;-73
2023/11/19 06:41:09;;;;;;;1999.90;999.90;;;12.70;1.00;;;;;;5033611;28;20208;-73
2023/11/19 06:43:36;;;;;;;1999.90;999.90;;;12.70;1.00;;;;;;5033575;28;20172;-73
2023/11/19 06:46:02;;;;;;;1999.90;999.90;;;12.70;1.00;;;;;;5033363;28;20174;-73
2023/11/19 06:48:27;;;;;;;1999.90;999.90;;;12.70;1.00;;;;;;5033495;28;20838;-73
2023/11/19 06:50:53;;;;;;;1999.90;999.90;;;12.70;1.00;;;;;;5033064;28;20204;-73
2023/11/19 06:53:19;;;;;;;1999.90;999.90;;;12.80;1.00;;;;;;5033604;28;20180;-73
2023/11/19 06:55:45;;;;;;;1999.90;999.90;;;12.70;99.90;;;;;;5033305;28;20531;-73
2023/11/19 06:58:12;;;;;;;1999.90;999.90;;;12.70;99.90;;;;;;5033251;28;20199;-73
2023/11/19 07:00:37;;;;;;;1999.90;999.90;;;12.70;99.90;;;;;;5032941;28;20445;-73
2023/11/19 07:03:03;;;;;;;1999.90;999.90;;;12.70;1.00;;;;;;5033176;28;20408;-73
2023/11/19 07:05:30;;;;;;;1999.90;999.90;;;12.70;1.00;;;;;;5033233;28;20180;-72
2023/11/19 07:07:55;;;;;;;1999.90;999.90;;;12.60;1.00;;;;;;5033055;28;20182;-73
2023/11/19 07:10:21;;;;;;;1999.90;999.90;;;12.60;1.00;;;;;;5032810;28;20422;-72
2023/11/19 07:12:47;;;;;;;1999.90;999.90;;;12.60;1.00;;;;;;5033006;28;20171;-73
2023/11/19 07:15:13;;;;;;;1999.90;999.90;;;12.50;1.00;;;;;;5032742;28;20175;-73
2023/11/19 07:17:43;;;;;;;1999.90;999.90;;;12.50;1.00;;;;;;5033062;28;20406;-73
2023/11/19 07:20:12;;;;;;;1999.90;999.90;;;12.50;1.00;;;;;;5033378;28;20434;-72
2023/11/19 07:22:38;;;;;;;1999.90;999.90;;;12.50;1.00;;;;;;5036590;28;20412;-72
2023/11/19 07:25:04;;;;;;;1999.90;999.90;;;12.50;1.00;;;;;;5035351;28;20486;-72
2023/11/19 07:27:30;;;;;;;1999.90;999.90;;;12.40;99.90;;;;;;5035551;28;20403;-72
2023/11/19 07:29:55;;;;;;;1999.90;999.90;;;12.70;99.90;;;;;;5034709;28;20415;-72
2023/11/19 07:32:21;;;;;;;1999.90;999.90;;;12.50;1.00;;;;;;5035111;28;20283;-72
2023/11/19 07:34:47;;;;;;;1999.90;999.90;;;12.50;99.90;;;;;;5034988;28;20407;-72
2023/11/19 07:37:12;;;;;;;1999.90;999.90;;;12.50;1.00;;;;;;5035251;28;20176;-72
2023/11/19 07:39:40;;;;;;;1999.90;999.90;;;12.50;99.90;;;;;;5035869;28;20261;-72
2023/11/19 07:42:06;;;;;;;1999.90;999.90;;;12.60;99.90;;;;;;5035593;28;20188;-72
2023/11/19 07:44:32;;;;;;;1999.90;999.90;;;12.50;97.70;;;;;;5034141;28;20415;-72
2023/11/19 07:46:58;;;;;;;1999.90;999.90;;;12.50;99.90;;;;;;5015881;28;20188;-72
2023/11/19 07:49:24;;;;;;;1999.90;999.90;;;12.50;72.70;;;;;;5015661;28;20635;-72
2023/11/19 07:51:49;;;;;;;1999.90;999.90;;;12.60;99.90;;;;;;5016315;28;20559;-72
2023/11/19 07:54:15;;;;;;;1999.90;999.90;;;12.50;99.90;;;;;;5015840;28;20636;-73
2023/11/19 07:56:40;;;;;;;1999.90;999.90;;;12.50;99.90;;;;;;4999935;28;20161;-73
2023/11/19 07:59:06;;;;;;;1999.90;999.90;;;12.50;99.90;;;;;;5017463;28;20165;-73
2023/11/19 08:01:32;;;;;;;1999.90;999.90;;;12.50;99.90;;;;;;5016580;28;20197;-72
2023/11/19 08:03:57;;;;;;;1999.90;999.90;;;12.60;1.00;;;;;;5017462;28;20624;-72
2023/11/19 08:06:23;;;;;;;1999.90;999.90;;;12.50;99.90;;;;;;5017898;28;20182;-73
2023/11/19 08:08:48;;;;;;;1999.90;999.90;;;12.50;1.00;;;;;;5017093;28;20174;-73
2023/11/19 08:11:15;;;;;;;1999.90;999.90;;;12.50;99.90;;;;;;5016394;28;20243;-73
2023/11/19 08:13:40;;;;;;;1999.90;999.90;;;12.50;1.00;;;;;;5016482;28;20173;-73
2023/11/19 08:16:06;;;;;;;1999.90;999.90;;;12.60;1.00;;;;;;5017349;28;20807;-72
2023/11/19 08:18:32;;;;;;;1999.90;999.90;;;12.60;99.90;;;;;;5017475;28;20212;-73
2023/11/19 08:20:59;;;;;;;1999.90;999.90;;;12.70;99.90;;;;;;5016737;28;20785;-72
2023/11/19 08:23:25;;;;;;;1999.90;999.90;;;12.70;99.90;;;;;;5016988;28;20173;-73
2023/11/19 08:25:51;;;;;;;1999.90;999.90;;;12.70;94.90;;;;;;5016054;28;20800;-73
2023/11/19 08:28:17;;;;;;;1999.90;999.90;;;12.70;1.00;;;;;;5016874;28;20417;-73
2023/11/19 08:30:44;;;;;;;1999.90;999.90;;;12.70;1.00;;;;;;5016338;28;20482;-73
2023/11/19 08:33:09;;;;;;;1999.90;999.90;;;12.80;1.00;;;;;;4998713;28;20174;-73
2023/11/19 08:35:35;;;;;;;1999.90;999.90;;;12.80;99.90;;;;;;5013978;28;20500;-72
2023/11/19 08:38:01;;;;;;;1999.90;999.90;;;12.80;99.90;;;;;;5012102;28;20550;-72
2023/11/19 08:40:27;;;;;;;1999.90;999.90;;;12.80;99.90;;;;;;5012125;28;20194;-72
2023/11/19 08:42:52;;;;;;;1999.90;999.90;;;12.90;1.00;;;;;;5011902;28;20416;-72
2023/11/19 08:45:18;;;;;;;1999.90;999.90;;;12.90;99.90;;;;;;5011997;28;20412;-72
2023/11/19 08:47:45;;;;;;;1999.90;999.90;;;12.90;99.90;;;;;;5012236;28;20187;-72
2023/11/19 08:50:11;;;;;;;1999.90;999.90;;;12.90;1.00;;;;;;5011901;28;20189;-73
2023/11/19 08:52:37;;;;;;;1999.90;999.90;;;12.90;99.90;;;;;;5011904;28;20899;-72
2023/11/19 08:55:05;;;;;;;1999.90;999.90;;;13.00;99.90;;;;;;5012127;28;20407;-73
2023/11/19 08:57:31;;;;;;;1999.90;999.90;;;13.00;54.80;;;;;;5011905;28;20393;-72
2023/11/19 08:59:56;;;;;;;1999.90;999.90;;;13.10;99.90;;;;;;5011502;28;20470;-73
2023/11/19 09:02:22;;;;;;;1999.90;999.90;;;13.00;99.90;;;;;;5011570;28;20421;-72
2023/11/19 09:04:47;;;;;;;1999.90;999.90;;;13.10;99.90;;;;;;5010491;28;20247;-72
2023/11/19 09:07:13;;;;;;;1999.90;999.90;;;13.10;1.00;;;;;;5011674;28;20166;-72
2023/11/19 09:09:39;;;;;;;1999.90;999.90;;;13.10;99.90;;;;;;5011524;28;20173;-72
2023/11/19 09:12:04;;;;;;;1999.90;999.90;;;13.10;99.90;;;;;;5011548;28;20197;-72
2023/11/19 09:14:30;;;;;;;1999.90;999.90;;;13.20;99.90;;;;;;5013773;28;20170;-72
2023/11/19 09:16:56;;;;;;;1999.90;999.90;;;13.20;22.70;;;;;;5014733;28;20177;-72
2023/11/19 09:19:22;;;;;;;1999.90;999.90;;;13.20;96.90;;;;;;5015236;28;20704;-72
2023/11/19 09:21:48;;;;;;;1999.90;999.90;;;13.20;1.00;;;;;;5015167;28;20429;-72
2023/11/19 09:24:14;;;;;;;1999.90;999.90;;;13.30;1.00;;;;;;5015036;28;20500;-72
2023/11/19 09:26:41;;;;;;;1999.90;999.90;;;13.30;99.90;;;;;;5015178;28;20497;-72
2023/11/19 09:29:07;;;;;;;1999.90;999.90;;;13.30;99.90;;;;;;5015397;28;20178;-73
2023/11/19 09:31:34;;;;;;;1999.90;999.90;;;13.30;83.90;;;;;;5014934;28;20910;-72
2023/11/19 09:34:00;;;;;;;1999.90;999.90;;;13.40;10.10;;;;;;5015114;28;20434;-72
2023/11/19 09:36:25;;;;;;;1999.90;999.90;;;13.50;99.90;;;;;;5015002;28;20907;-72
2023/11/19 09:38:51;;;;;;;1999.90;999.90;;;13.50;99.90;;;;;;5014921;28;20202;-72
2023/11/19 09:41:19;;;;;;;1999.90;999.90;;;13.50;1.00;;;;;;5014921;28;20198;-72
2023/11/19 09:43:45;;;;;;;1999.90;999.90;;;13.50;1.00;;;;;;5015093;28;20187;-72
2023/11/19 09:46:15;;;;;;;1999.90;999.90;;;13.60;1.00;;;;;;5014973;28;20445;-72
2023/11/19 09:48:42;;;;;;;1999.90;999.90;;;13.70;99.90;;;;;;5015063;28;20419;-72
2023/11/19 09:51:08;;;;;;;1999.90;999.90;;;13.70;1.00;;;;;;5014573;28;20455;-72
2023/11/19 09:53:36;;;;;;;1999.90;999.90;;;13.70;1.00;;;;;;5014607;28;20472;-72
2023/11/19 09:56:03;;;;;;;1999.90;999.90;;;13.70;6.90;;;;;;5014422;28;20404;-72
2023/11/19 09:58:32;;;;;;;1999.90;999.90;;;13.80;99.90;;;;;;5014689;28;20410;-72
2023/11/19 10:01:07;;;;;;;1999.90;999.90;;;13.80;1.00;;;;;;5014303;28;20446;-72
2023/11/19 10:03:35;;;;;;;1999.90;999.90;;;13.80;1.00;;;;;;5014434;28;20414;-72
2023/11/19 10:06:02;;;;;;;1999.90;999.90;;;13.80;99.90;;;;;;5015302;28;20413;-72
2023/11/19 10:08:28;;;;;;;1999.90;999.90;;;13.90;99.90;;;;;;5014847;28;20440;-72
2023/11/19 10:10:53;;;;;;;1999.90;999.90;;;13.90;46.80;;;;;;5014139;28;20957;-72
2023/11/19 10:13:19;;;;;;;1999.90;999.90;;;13.90;99.90;;;;;;5014271;28;20174;-72
2023/11/19 10:15:45;;;;;;;1999.90;999.90;;;13.90;99.90;;;;;;5011827;28;20181;-71
2023/11/19 10:18:10;;;;;;;1999.90;999.90;;;13.90;1.00;;;;;;5010228;28;20205;-71
2023/11/19 10:20:43;;;;;;;1999.90;999.90;;;14.00;1.00;;;;;;5009254;28;20207;-71
2023/11/19 10:23:10;;;;;;;1999.90;999.90;;;14.00;18.70;;;;;;5009842;28;20187;-73
2023/11/19 10:25:36;;;;;;;1999.90;999.90;;;14.10;1.00;;;;;;5010302;28;20424;-72
2023/11/19 10:28:03;;;;;;;1999.90;999.90;;;14.10;99.90;;;;;;5009620;28;20415;-73
2023/11/19 10:30:30;;;;;;;1999.90;999.90;;;14.20;99.90;;;;;;5007645;28;20438;-72
2023/11/19 10:33:09;;;;;;;1999.90;999.90;;;14.30;99.90;;;;;;5009829;28;20424;-73
2023/11/19 10:35:36;;;;;;;1999.90;999.90;;;14.40;99.90;;;;;;5010502;28;20773;-72
2023/11/19 10:38:15;;;;;;;1999.90;999.90;;;14.40;99.90;;;;;;5010098;28;20443;-72
2023/11/19 10:40:41;;;;;;;1999.90;999.90;;;14.40;99.90;;;;;;5012524;28;20979;-72
2023/11/19 10:43:07;;;;;;;1999.90;999.90;;;14.50;1.00;;;;;;5013316;28;20424;-73
2023/11/19 10:45:34;;;;;;;1999.90;999.90;;;14.40;99.90;;;;;;5012650;28;20515;-73
2023/11/19 10:48:01;;;;;;;1999.90;999.90;;;14.30;27.80;;;;;;5013654;28;21141;-72
2023/11/19 10:50:27;;;;;;;1999.90;999.90;;;14.30;1.00;;;;;;5010376;28;20488;-74
2023/11/19 10:53:00;;;;;;;1999.90;999.90;;;14.40;99.90;;;;;;5010514;28;20428;-72
2023/11/19 10:55:30;;;;;;;1999.90;999.90;;;14.40;99.90;;;;;;5009791;28;20404;-74
2023/11/19 10:58:05;;;;;;;1999.90;999.90;;;14.40;99.90;;;;;;5010039;28;20460;-73
2023/11/19 11:00:43;;;;;;;1999.90;999.90;;;14.30;1.00;;;;;;5012864;28;20473;-74
2023/11/19 11:03:14;;;;;;;1999.90;999.90;;;14.20;1.00;;;;;;5014212;28;20783;-71
2023/11/19 11:05:41;;;;;;;1999.90;999.90;;;14.20;99.90;;;;;;5012874;28;20483;-74
2023/11/19 11:08:08;;;;;;;1999.90;999.90;;;14.40;99.90;;;;;;5027804;28;20993;-72
2023/11/19 11:10:39;;;;;;;1999.90;999.90;;;14.60;1.00;;;;;;5033696;28;20453;-71
2023/11/19 11:13:06;;;;;;;1999.90;999.90;;;14.90;1.00;;;;;;5034336;28;20407;-70
2023/11/19 11:15:32;;;;;;;1999.90;999.90;;;15.00;99.90;;;;;;5033791;28;20401;-72
2023/11/19 11:18:04;;;;;;;1999.90;999.90;;;15.10;99.90;;;;;;5034136;28;20401;-72
2023/11/19 11:20:33;;;;;;;1999.90;999.90;;;15.20;99.90;;;;;;5033357;28;20417;-72
2023/11/19 11:23:33;;;;;;;1999.90;999.90;;;15.30;99.90;;;;;;5033148;28;20413;-72
2023/11/19 11:26:11;;;;;;;1999.90;999.90;;;15.40;76.80;;;;;;5033173;28;20437;-72
2023/11/19 11:28:49;;;;;;;1999.90;999.90;;;15.50;1.00;;;;;;5024481;28;20424;-72
2023/11/19 11:31:48;;;;;;;1999.90;999.90;;;15.60;1.00;;;;;;5012728;28;20498;-72
2023/11/19 11:34:22;;;;;;;1999.90;999.90;;;15.60;1.00;;;;;;5013233;28;20407;-72
2023/11/19 11:37:07;;;;;;;1999.90;999.90;;;15.90;1.00;;;;;;5012495;28;20472;-72
2023/11/19 11:39:33;;;;;;;1999.90;999.90;;;16.20;1.00;;;;;;5012832;28;20395;-72
2023/11/19 11:42:17;;;;;;;1999.90;999.90;;;16.40;99.90;;;;;;5013245;28;20896;-72
2023/11/19 11:44:59;;;;;;;1999.90;999.90;;;16.40;99.90;;;;;;5013192;28;20409;-72
2023/11/19 11:47:25;;;;;;;1999.90;999.90;;;16.70;99.90;;;;;;5013496;28;20400;-72
2023/11/19 11:49:52;;;;;;;1999.90;999.90;;;16.50;1.00;;;;;;5013021;28;20751;-72
2023/11/19 11:52:17;;;;;;;1999.90;999.90;;;16.60;99.90;;;;;;5013076;28;20206;-72
2023/11/19 11:54:44;;;;;;;1999.90;999.90;;;16.80;99.90;;;;;;5013198;28;20807;-72
2023/11/19 11:57:12;;;;;;;1999.90;999.90;;;17.10;99.90;;;;;;5013332;28;20173;-72
2023/11/19 11:59:38;;;;;;;1999.90;999.90;;;17.20;99.90;;;;;;5013071;28;20853;-72